Grangeville, Louisiana
Current Conditions -  °F | °C
As of 7:53 AM on Saturday 20 Dec 2014 (Local Time) from KBTR Reporting Station
Overcast Overcast  
Wind Chill: 46°   Ceiling: 700
Heat Index: 48°   Visibility: 10mi
Dew Point: 45°   Wind: 5mph
Humidity: 89%   Direction: 30°NNE
Pressure: 30.16"   Gusts: NA
Location:  30.7279°N, 90.6769°W
Report Text: KBTR 201353Z 03004KT 10SM OVC007 09/07 A3016 RMK AO2 SLP211 T00890072
Loading
Personal Weather Stations






























Interactive Weather Map New forecast layout! Learn more

10-Day Weather Forecast

Advertisements
Track Severe Weather on mobile